sensor_id;sensor_type;location;lat;lon;timestamp;pressure;altitude;pressure_sealevel;temperature;humidity
40155;BME280;25875;48.202;16.334;2023-05-25T00:02:16;99523.72;;;16.56;54.71
40155;BME280;25875;48.202;16.334;2023-05-25T00:04:43;99517.66;;;16.54;54.85
40155;BME280;25875;48.202;16.334;2023-05-25T00:07:13;99529.44;;;16.52;54.89
40155;BME280;25875;48.202;16.334;2023-05-25T00:09:40;99523.34;;;16.50;55.01
40155;BME280;25875;48.202;16.334;2023-05-25T00:12:10;99523.59;;;16.47;55.05
40155;BME280;25875;48.202;16.334;2023-05-25T00:14:36;99524.44;;;16.47;55.03
40155;BME280;25875;48.202;16.334;2023-05-25T00:17:04;99435.66;;;15.85;54.62
40155;BME280;25875;48.202;16.334;2023-05-25T00:19:34;99521.28;;;16.42;54.46
40155;BME280;25875;48.202;16.334;2023-05-25T00:22:01;99528.56;;;16.40;54.90
40155;BME280;25875;48.202;16.334;2023-05-25T00:24:28;99535.00;;;16.38;54.61
40155;BME280;25875;48.202;16.334;2023-05-25T00:26:55;99531.69;;;16.34;54.56
40155;BME280;25875;48.202;16.334;2023-05-25T00:29:23;99533.63;;;16.32;54.55
40155;BME280;25875;48.202;16.334;2023-05-25T00:31:50;99525.97;;;16.27;54.45
40155;BME280;25875;48.202;16.334;2023-05-25T00:34:17;99526.94;;;16.26;54.63
40155;BME280;25875;48.202;16.334;2023-05-25T00:36:44;99527.91;;;16.25;54.70
40155;BME280;25875;48.202;16.334;2023-05-25T00:39:12;99528.25;;;16.21;54.61
40155;BME280;25875;48.202;16.334;2023-05-25T00:41:41;99531.03;;;16.19;54.41
40155;BME280;25875;48.202;16.334;2023-05-25T00:44:09;99516.16;;;16.04;54.58
40155;BME280;25875;48.202;16.334;2023-05-25T00:46:37;99500.06;;;15.93;54.63
40155;BME280;25875;48.202;16.334;2023-05-25T00:49:05;99538.66;;;16.13;54.84
40155;BME280;25875;48.202;16.334;2023-05-25T00:51:31;99533.44;;;16.11;54.62
40155;BME280;25875;48.202;16.334;2023-05-25T00:54:01;99540.72;;;16.09;54.42
40155;BME280;25875;48.202;16.334;2023-05-25T00:56:29;99535.50;;;16.08;54.35
40155;BME280;25875;48.202;16.334;2023-05-25T00:59:03;99495.69;;;15.68;54.37
40155;BME280;25875;48.202;16.334;2023-05-25T01:01:31;99530.84;;;15.98;54.61
40155;BME280;25875;48.202;16.334;2023-05-25T01:04:06;99542.59;;;15.96;54.88
40155;BME280;25875;48.202;16.334;2023-05-25T01:06:35;99503.59;;;15.69;54.94
40155;BME280;25875;48.202;16.334;2023-05-25T01:09:07;99539.31;;;15.92;54.62
40155;BME280;25875;48.202;16.334;2023-05-25T01:11:39;99465.31;;;15.45;54.57
40155;BME280;25875;48.202;16.334;2023-05-25T01:14:08;99470.88;;;15.42;54.70
40155;BME280;25875;48.202;16.334;2023-05-25T01:16:35;99403.91;;;15.08;54.64
40155;BME280;25875;48.202;16.334;2023-05-25T01:19:03;99548.50;;;15.88;54.45
40155;BME280;25875;48.202;16.334;2023-05-25T01:21:34;99547.66;;;15.88;55.04
40155;BME280;25875;48.202;16.334;2023-05-25T01:24:11;99518.16;;;15.65;54.72
40155;BME280;25875;48.202;16.334;2023-05-25T01:26:52;99538.16;;;15.84;54.94
40155;BME280;25875;48.202;16.334;2023-05-25T01:29:22;99507.88;;;15.59;54.65
40155;BME280;25875;48.202;16.334;2023-05-25T01:31:51;99391.78;;;14.92;54.45
40155;BME280;25875;48.202;16.334;2023-05-25T01:34:20;99503.38;;;15.60;54.53
40155;BME280;25875;48.202;16.334;2023-05-25T01:36:48;99513.66;;;15.66;54.86
40155;BME280;25875;48.202;16.334;2023-05-25T01:39:15;99530.50;;;15.79;54.95
40155;BME280;25875;48.202;16.334;2023-05-25T01:41:42;99548.13;;;15.82;54.88
40155;BME280;25875;48.202;16.334;2023-05-25T01:44:09;99517.19;;;15.66;54.54
40155;BME280;25875;48.202;16.334;2023-05-25T01:46:39;99471.03;;;15.28;54.46
40155;BME280;25875;48.202;16.334;2023-05-25T01:49:13;99438.38;;;15.12;55.25
40155;BME280;25875;48.202;16.334;2023-05-25T01:51:52;99541.75;;;15.71;54.92
40155;BME280;25875;48.202;16.334;2023-05-25T01:54:25;99550.84;;;15.69;55.14
40155;BME280;25875;48.202;16.334;2023-05-25T01:56:57;99501.09;;;15.43;55.40
40155;BME280;25875;48.202;16.334;2023-05-25T01:59:27;99539.53;;;15.65;55.01
40155;BME280;25875;48.202;16.334;2023-05-25T02:01:55;99444.06;;;15.07;54.86
40155;BME280;25875;48.202;16.334;2023-05-25T02:04:23;99538.00;;;15.61;55.08
40155;BME280;25875;48.202;16.334;2023-05-25T02:06:53;99538.22;;;15.58;55.46
40155;BME280;25875;48.202;16.334;2023-05-25T02:09:20;99539.41;;;15.54;55.01
40155;BME280;25875;48.202;16.334;2023-05-25T02:11:47;99538.69;;;15.52;55.39
40155;BME280;25875;48.202;16.334;2023-05-25T02:14:14;99539.63;;;15.51;55.41
40155;BME280;25875;48.202;16.334;2023-05-25T02:16:41;99539.13;;;15.46;55.38
40155;BME280;25875;48.202;16.334;2023-05-25T02:19:11;99548.72;;;15.49;55.54
40155;BME280;25875;48.202;16.334;2023-05-25T02:21:39;99554.06;;;15.49;55.41
40155;BME280;25875;48.202;16.334;2023-05-25T02:24:08;99554.28;;;15.46;55.52
40155;BME280;25875;48.202;16.334;2023-05-25T02:26:35;99556.22;;;15.44;55.24
40155;BME280;25875;48.202;16.334;2023-05-25T02:29:03;99535.94;;;15.28;55.38
40155;BME280;25875;48.202;16.334;2023-05-25T02:31:30;99565.41;;;15.39;55.67
40155;BME280;25875;48.202;16.334;2023-05-25T02:33:57;99560.28;;;15.36;55.53
40155;BME280;25875;48.202;16.334;2023-05-25T02:36:24;99568.63;;;15.32;55.70
40155;BME280;25875;48.202;16.334;2023-05-25T02:38:51;99524.25;;;15.05;55.79
40155;BME280;25875;48.202;16.334;2023-05-25T02:41:19;99563.50;;;15.29;55.83
40155;BME280;25875;48.202;16.334;2023-05-25T02:43:46;99536.41;;;15.10;55.74
40155;BME280;25875;48.202;16.334;2023-05-25T02:46:13;99571.84;;;15.24;56.19
40155;BME280;25875;48.202;16.334;2023-05-25T02:48:40;99569.28;;;15.23;56.36
40155;BME280;25875;48.202;16.334;2023-05-25T02:51:07;99574.84;;;15.20;55.92
40155;BME280;25875;48.202;16.334;2023-05-25T02:53:34;99578.47;;;15.19;56.09
40155;BME280;25875;48.202;16.334;2023-05-25T02:56:00;99458.06;;;14.47;56.37
40155;BME280;25875;48.202;16.334;2023-05-25T02:58:29;99586.59;;;15.17;56.60
40155;BME280;25875;48.202;16.334;2023-05-25T03:00:56;99591.94;;;15.17;56.55
40155;BME280;25875;48.202;16.334;2023-05-25T03:03:24;99594.81;;;15.14;56.46
40155;BME280;25875;48.202;16.334;2023-05-25T03:05:51;99575.38;;;14.99;56.29
40155;BME280;25875;48.202;16.334;2023-05-25T03:08:17;99600.38;;;15.11;56.26
40155;BME280;25875;48.202;16.334;2023-05-25T03:10:44;99596.94;;;15.09;56.35
40155;BME280;25875;48.202;16.334;2023-05-25T03:13:11;99594.38;;;15.07;56.74
40155;BME280;25875;48.202;16.334;2023-05-25T03:15:39;99596.31;;;15.05;56.71
40155;BME280;25875;48.202;16.334;2023-05-25T03:18:06;99595.34;;;15.06;56.77
40155;BME280;25875;48.202;16.334;2023-05-25T03:20:33;99591.81;;;15.06;56.39
40155;BME280;25875;48.202;16.334;2023-05-25T03:23:00;99590.22;;;15.03;56.92
40155;BME280;25875;48.202;16.334;2023-05-25T03:25:26;99586.91;;;15.00;57.08
40155;BME280;25875;48.202;16.334;2023-05-25T03:27:53;99587.88;;;14.99;57.04
40155;BME280;25875;48.202;16.334;2023-05-25T03:30:21;99585.31;;;14.97;56.61
40155;BME280;25875;48.202;16.334;2023-05-25T03:32:49;99589.81;;;14.97;56.76
40155;BME280;25875;48.202;16.334;2023-05-25T03:35:16;99555.31;;;14.81;57.16
40155;BME280;25875;48.202;16.334;2023-05-25T03:37:43;99593.31;;;14.97;57.04
40155;BME280;25875;48.202;16.334;2023-05-25T03:40:10;99596.94;;;14.96;57.09
40155;BME280;25875;48.202;16.334;2023-05-25T03:42:37;99571.22;;;14.83;57.15
40155;BME280;25875;48.202;16.334;2023-05-25T03:45:05;99599.72;;;14.95;57.23
40155;BME280;25875;48.202;16.334;2023-05-25T03:47:33;99610.63;;;14.92;57.46
40155;BME280;25875;48.202;16.334;2023-05-25T03:50:01;99613.38;;;14.90;57.22
40155;BME280;25875;48.202;16.334;2023-05-25T03:52:28;99608.25;;;14.87;57.30
40155;BME280;25875;48.202;16.334;2023-05-25T03:54:55;99607.31;;;14.88;57.36
40155;BME280;25875;48.202;16.334;2023-05-25T03:57:22;99613.59;;;14.87;57.39
40155;BME280;25875;48.202;16.334;2023-05-25T03:59:49;99608.25;;;14.87;57.33
40155;BME280;25875;48.202;16.334;2023-05-25T04:02:15;99609.00;;;14.89;57.18
40155;BME280;25875;48.202;16.334;2023-05-25T04:04:42;99612.44;;;14.91;57.15
40155;BME280;25875;48.202;16.334;2023-05-25T04:07:10;99608.06;;;14.90;57.15
40155;BME280;25875;48.202;16.334;2023-05-25T04:09:37;99606.13;;;14.92;57.25
40155;BME280;25875;48.202;16.334;2023-05-25T04:12:04;99604.31;;;14.93;57.53
40155;BME280;25875;48.202;16.334;2023-05-25T04:14:31;99596.22;;;14.94;57.11
40155;BME280;25875;48.202;16.334;2023-05-25T04:16:58;99563.97;;;14.72;57.27
40155;BME280;25875;48.202;16.334;2023-05-25T04:19:24;99613.81;;;14.97;57.42
40155;BME280;25875;48.202;16.334;2023-05-25T04:21:51;99609.44;;;14.96;57.52
40155;BME280;25875;48.202;16.334;2023-05-25T04:24:20;99602.28;;;14.96;57.66
40155;BME280;25875;48.202;16.334;2023-05-25T04:26:47;99580.84;;;14.85;57.44
40155;BME280;25875;48.202;16.334;2023-05-25T04:29:14;99608.91;;;15.03;57.12
40155;BME280;25875;48.202;16.334;2023-05-25T04:31:41;99544.97;;;14.64;57.03
40155;BME280;25875;48.202;16.334;2023-05-25T04:34:09;99607.09;;;15.04;57.26
40155;BME280;25875;48.202;16.334;2023-05-25T04:36:38;99606.03;;;15.06;57.32
40155;BME280;25875;48.202;16.334;2023-05-25T04:39:07;99612.22;;;15.07;57.06
40155;BME280;25875;48.202;16.334;2023-05-25T04:41:35;99584.69;;;14.94;57.36
40155;BME280;25875;48.202;16.334;2023-05-25T04:44:03;99558.72;;;14.70;56.67
40155;BME280;25875;48.202;16.334;2023-05-25T04:46:30;99609.44;;;15.08;56.74
40155;BME280;25875;48.202;16.334;2023-05-25T04:49:01;99616.38;;;15.11;56.84
40155;BME280;25875;48.202;16.334;2023-05-25T04:51:28;99523.66;;;14.50;56.95
40155;BME280;25875;48.202;16.334;2023-05-25T04:53:56;99620.66;;;15.14;56.76
40155;BME280;25875;48.202;16.334;2023-05-25T04:56:24;99576.66;;;14.94;56.74
40155;BME280;25875;48.202;16.334;2023-05-25T04:58:52;99584.56;;;14.95;56.79
40155;BME280;25875;48.202;16.334;2023-05-25T05:01:19;99474.03;;;14.34;56.21
40155;BME280;25875;48.202;16.334;2023-05-25T05:03:46;99628.88;;;15.23;56.40
40155;BME280;25875;48.202;16.334;2023-05-25T05:06:12;99624.41;;;15.24;56.12
40155;BME280;25875;48.202;16.334;2023-05-25T05:08:39;99580.94;;;14.96;56.27
40155;BME280;25875;48.202;16.334;2023-05-25T05:11:07;99629.63;;;15.25;56.27
40155;BME280;25875;48.202;16.334;2023-05-25T05:13:33;99640.19;;;15.27;55.97
40155;BME280;25875;48.202;16.334;2023-05-25T05:16:02;99633.91;;;15.28;56.17
40155;BME280;25875;48.202;16.334;2023-05-25T05:18:29;99628.44;;;15.29;56.04
40155;BME280;25875;48.202;16.334;2023-05-25T05:20:56;99632.94;;;15.29;56.22
40155;BME280;25875;48.202;16.334;2023-05-25T05:23:23;99638.28;;;15.29;56.15
40155;BME280;25875;48.202;16.334;2023-05-25T05:25:49;99595.34;;;15.06;56.02
40155;BME280;25875;48.202;16.334;2023-05-25T05:28:16;99454.84;;;14.29;56.17
40155;BME280;25875;48.202;16.334;2023-05-25T05:30:43;99627.91;;;15.37;55.95
40155;BME280;25875;48.202;16.334;2023-05-25T05:33:13;99638.47;;;15.38;56.00
40155;BME280;25875;48.202;16.334;2023-05-25T05:35:39;99638.38;;;15.40;55.59
40155;BME280;25875;48.202;16.334;2023-05-25T05:38:06;99633.78;;;15.42;55.96
40155;BME280;25875;48.202;16.334;2023-05-25T05:40:33;99635.38;;;15.45;55.72
40155;BME280;25875;48.202;16.334;2023-05-25T05:43:00;99610.63;;;15.30;55.37
40155;BME280;25875;48.202;16.334;2023-05-25T05:45:27;99638.69;;;15.48;55.21
40155;BME280;25875;48.202;16.334;2023-05-25T05:47:54;99634.19;;;15.49;55.72
40155;BME280;25875;48.202;16.334;2023-05-25T05:50:22;99604.31;;;15.31;55.58
40155;BME280;25875;48.202;16.334;2023-05-25T05:52:48;99641.66;;;15.56;55.18
40155;BME280;25875;48.202;16.334;2023-05-25T05:55:15;99636.97;;;15.60;55.49
40155;BME280;25875;48.202;16.334;2023-05-25T05:57:42;99589.47;;;15.27;54.90
40155;BME280;25875;48.202;16.334;2023-05-25T06:00:10;99642.75;;;15.66;54.95
40155;BME280;25875;48.202;16.334;2023-05-25T06:02:37;99652.38;;;15.69;55.17
40155;BME280;25875;48.202;16.334;2023-05-25T06:05:04;99655.69;;;15.73;55.10
40155;BME280;25875;48.202;16.334;2023-05-25T06:07:33;99654.72;;;15.74;55.10
40155;BME280;25875;48.202;16.334;2023-05-25T06:09:59;99652.66;;;15.77;54.65
40155;BME280;25875;48.202;16.334;2023-05-25T06:12:26;99661.53;;;15.78;55.08
40155;BME280;25875;48.202;16.334;2023-05-25T06:14:53;99659.50;;;15.81;55.12
40155;BME280;25875;48.202;16.334;2023-05-25T06:17:20;99659.16;;;15.86;54.64
40155;BME280;25875;48.202;16.334;2023-05-25T06:19:48;99666.00;;;15.90;54.73
40155;BME280;25875;48.202;16.334;2023-05-25T06:22:15;99662.38;;;15.91;55.01
40155;BME280;25875;48.202;16.334;2023-05-25T06:24:43;99663.84;;;15.95;55.01
40155;BME280;25875;48.202;16.334;2023-05-25T06:27:10;99660.97;;;15.98;54.54
40155;BME280;25875;48.202;16.334;2023-05-25T06:29:37;99433.16;;;14.61;54.37
40155;BME280;25875;48.202;16.334;2023-05-25T06:32:05;99663.19;;;16.04;54.57
40155;BME280;25875;48.202;16.334;2023-05-25T06:34:31;99654.94;;;16.07;54.56
40155;BME280;25875;48.202;16.334;2023-05-25T06:36:58;99628.47;;;15.91;54.62
40155;BME280;25875;48.202;16.334;2023-05-25T06:39:25;99658.66;;;16.17;54.51
40155;BME280;25875;48.202;16.334;2023-05-25T06:41:53;99515.53;;;15.40;54.21
40155;BME280;25875;48.202;16.334;2023-05-25T06:44:20;99616.16;;;16.01;54.54
40155;BME280;25875;48.202;16.334;2023-05-25T06:46:46;99655.69;;;16.33;54.57
40155;BME280;25875;48.202;16.334;2023-05-25T06:49:13;99653.41;;;16.40;54.04
40155;BME280;25875;48.202;16.334;2023-05-25T06:51:40;99656.50;;;16.46;54.11
40155;BME280;25875;48.202;16.334;2023-05-25T06:54:07;99661.38;;;16.52;53.92
40155;BME280;25875;48.202;16.334;2023-05-25T06:56:33;99662.53;;;16.61;53.53
40155;BME280;25875;48.202;16.334;2023-05-25T06:59:02;99652.13;;;16.69;53.55
40155;BME280;25875;48.202;16.334;2023-05-25T07:01:28;99615.56;;;16.57;53.65
40155;BME280;25875;48.202;16.334;2023-05-25T07:03:55;99656.56;;;16.92;53.60
40155;BME280;25875;48.202;16.334;2023-05-25T07:06:22;99653.44;;;17.10;53.09
40155;BME280;25875;48.202;16.334;2023-05-25T07:08:49;99647.56;;;17.28;52.71
40155;BME280;25875;48.202;16.334;2023-05-25T07:11:15;99612.50;;;17.31;52.64
40155;BME280;25875;48.202;16.334;2023-05-25T07:13:45;99655.16;;;17.79;51.77
40155;BME280;25875;48.202;16.334;2023-05-25T07:16:13;99641.59;;;18.03;51.03
40155;BME280;25875;48.202;16.334;2023-05-25T07:18:40;99652.25;;;18.25;50.74
40155;BME280;25875;48.202;16.334;2023-05-25T07:21:07;99641.59;;;18.46;50.20
40155;BME280;25875;48.202;16.334;2023-05-25T07:23:35;99648.00;;;18.66;49.68
40155;BME280;25875;48.202;16.334;2023-05-25T07:26:01;99633.50;;;18.89;49.58
40155;BME280;25875;48.202;16.334;2023-05-25T07:28:28;99644.50;;;19.07;49.12
40155;BME280;25875;48.202;16.334;2023-05-25T07:30:55;99160.66;;;15.70;48.78
40155;BME280;25875;48.202;16.334;2023-05-25T07:33:23;99634.19;;;19.54;48.33
40155;BME280;25875;48.202;16.334;2023-05-25T07:35:50;99635.25;;;19.72;47.86
40155;BME280;25875;48.202;16.334;2023-05-25T07:38:17;99641.69;;;19.91;47.52
40155;BME280;25875;48.202;16.334;2023-05-25T07:40:43;99607.72;;;19.90;47.38
40155;BME280;25875;48.202;16.334;2023-05-25T07:43:11;99640.56;;;20.33;46.98
40155;BME280;25875;48.202;16.334;2023-05-25T07:45:38;99636.59;;;20.57;46.57
40155;BME280;25875;48.202;16.334;2023-05-25T07:48:05;99640.16;;;20.76;46.28
40155;BME280;25875;48.202;16.334;2023-05-25T07:50:35;99604.69;;;20.81;45.86
40155;BME280;25875;48.202;16.334;2023-05-25T07:53:02;99639.69;;;21.00;45.57
40155;BME280;25875;48.202;16.334;2023-05-25T07:55:28;99639.28;;;21.14;45.31
40155;BME280;25875;48.202;16.334;2023-05-25T07:57:55;99635.84;;;21.32;44.81
40155;BME280;25875;48.202;16.334;2023-05-25T08:00:22;99633.97;;;21.42;44.84
40155;BME280;25875;48.202;16.334;2023-05-25T08:02:49;99641.13;;;21.61;44.52
40155;BME280;25875;48.202;16.334;2023-05-25T08:05:15;99614.81;;;21.72;44.03
40155;BME280;25875;48.202;16.334;2023-05-25T08:07:44;99639.53;;;22.05;43.67
40155;BME280;25875;48.202;16.334;2023-05-25T08:10:11;99642.09;;;22.24;43.44
40155;BME280;25875;48.202;16.334;2023-05-25T08:12:38;99606.47;;;22.21;43.30
40155;BME280;25875;48.202;16.334;2023-05-25T08:15:05;99646.63;;;22.51;42.96
40155;BME280;25875;48.202;16.334;2023-05-25T08:17:32;99647.06;;;22.56;42.69
40155;BME280;25875;48.202;16.334;2023-05-25T08:19:59;99602.94;;;22.38;42.66
40155;BME280;25875;48.202;16.334;2023-05-25T08:22:25;99586.03;;;22.36;42.40
40155;BME280;25875;48.202;16.334;2023-05-25T08:24:53;99634.41;;;22.75;42.28
40155;BME280;25875;48.202;16.334;2023-05-25T08:27:20;99639.88;;;22.83;42.09
40155;BME280;25875;48.202;16.334;2023-05-25T08:29:47;99635.22;;;22.93;41.84
40155;BME280;25875;48.202;16.334;2023-05-25T08:32:14;99608.13;;;22.85;41.77
40155;BME280;25875;48.202;16.334;2023-05-25T08:34:40;99638.81;;;23.19;41.38
40155;BME280;25875;48.202;16.334;2023-05-25T08:37:07;99628.91;;;23.28;41.25
40155;BME280;25875;48.202;16.334;2023-05-25T08:39:34;99631.88;;;23.43;41.09
40155;BME280;25875;48.202;16.334;2023-05-25T08:42:04;99627.38;;;23.51;40.54
40155;BME280;25875;48.202;16.334;2023-05-25T08:44:31;99625.19;;;23.55;41.05
40155;BME280;25875;48.202;16.334;2023-05-25T08:47:03;99586.38;;;23.38;39.65
40155;BME280;25875;48.202;16.334;2023-05-25T08:49:33;99630.28;;;23.58;40.16
40155;BME280;25875;48.202;16.334;2023-05-25T08:52:03;99630.91;;;23.52;40.49
40155;BME280;25875;48.202;16.334;2023-05-25T08:54:33;99633.84;;;23.32;40.54
40155;BME280;25875;48.202;16.334;2023-05-25T08:57:05;99639.94;;;23.34;40.06
40155;BME280;25875;48.202;16.334;2023-05-25T08:59:40;99633.59;;;23.44;40.25
40155;BME280;25875;48.202;16.334;2023-05-25T09:02:18;99600.38;;;23.33;39.14
40155;BME280;25875;48.202;16.334;2023-05-25T09:04:46;99639.03;;;23.52;40.56
40155;BME280;25875;48.202;16.334;2023-05-25T09:07:14;99637.72;;;23.56;40.75
40155;BME280;25875;48.202;16.334;2023-05-25T09:09:41;99632.03;;;23.67;40.68
40155;BME280;25875;48.202;16.334;2023-05-25T09:12:10;99635.59;;;23.76;40.03
40155;BME280;25875;48.202;16.334;2023-05-25T09:14:38;99597.81;;;23.58;40.25
40155;BME280;25875;48.202;16.334;2023-05-25T09:17:10;99641.59;;;23.87;40.61
40155;BME280;25875;48.202;16.334;2023-05-25T09:19:37;99635.53;;;23.93;40.28
40155;BME280;25875;48.202;16.334;2023-05-25T09:22:04;99607.16;;;23.63;40.37
40155;BME280;25875;48.202;16.334;2023-05-25T09:24:32;99643.69;;;24.02;40.05
40155;BME280;25875;48.202;16.334;2023-05-25T09:26:59;99636.25;;;24.04;40.55
40155;BME280;25875;48.202;16.334;2023-05-25T09:29:29;99638.31;;;24.10;40.10
40155;BME280;25875;48.202;16.334;2023-05-25T09:31:56;99643.72;;;24.10;39.95
40155;BME280;25875;48.202;16.334;2023-05-25T09:34:23;99634.91;;;24.08;40.01
40155;BME280;25875;48.202;16.334;2023-05-25T09:36:56;99644.03;;;23.98;40.07
40155;BME280;25875;48.202;16.334;2023-05-25T09:39:22;99595.84;;;23.68;40.22
40155;BME280;25875;48.202;16.334;2023-05-25T09:41:51;99567.00;;;23.51;40.33
40155;BME280;25875;48.202;16.334;2023-05-25T09:44:18;99637.38;;;23.93;39.96
40155;BME280;25875;48.202;16.334;2023-05-25T09:46:46;99616.84;;;23.74;39.94
40155;BME280;25875;48.202;16.334;2023-05-25T09:49:13;99594.09;;;23.59;40.28
40155;BME280;25875;48.202;16.334;2023-05-25T09:51:40;99640.72;;;23.87;40.23
40155;BME280;25875;48.202;16.334;2023-05-25T09:54:08;99655.88;;;23.97;39.98
40155;BME280;25875;48.202;16.334;2023-05-25T09:56:35;99632.47;;;23.96;39.64
40155;BME280;25875;48.202;16.334;2023-05-25T09:59:02;99647.75;;;23.97;39.56
40155;BME280;25875;48.202;16.334;2023-05-25T10:01:31;99609.75;;;23.81;39.64
40155;BME280;25875;48.202;16.334;2023-05-25T10:03:59;99634.34;;;23.96;39.64
40155;BME280;25875;48.202;16.334;2023-05-25T10:06:26;99602.13;;;23.77;39.88
40155;BME280;25875;48.202;16.334;2023-05-25T10:08:55;99607.00;;;23.73;39.99
40155;BME280;25875;48.202;16.334;2023-05-25T10:11:23;99632.44;;;23.88;39.90
40155;BME280;25875;48.202;16.334;2023-05-25T10:13:52;99628.72;;;23.89;40.19
40155;BME280;25875;48.202;16.334;2023-05-25T10:16:21;99565.63;;;23.47;39.72
40155;BME280;25875;48.202;16.334;2023-05-25T10:18:53;99632.94;;;23.84;39.05
40155;BME280;25875;48.202;16.334;2023-05-25T10:21:24;99618.56;;;23.83;38.79
40155;BME280;25875;48.202;16.334;2023-05-25T10:24:00;99590.59;;;23.66;39.14
40155;BME280;25875;48.202;16.334;2023-05-25T10:26:32;99547.03;;;23.44;39.34
40155;BME280;25875;48.202;16.334;2023-05-25T10:29:01;99590.25;;;23.69;39.74
40155;BME280;25875;48.202;16.334;2023-05-25T10:31:30;99628.03;;;23.87;39.91
40155;BME280;25875;48.202;16.334;2023-05-25T10:33:58;99591.78;;;23.72;39.65
40155;BME280;25875;48.202;16.334;2023-05-25T10:36:27;99627.03;;;23.88;39.15
40155;BME280;25875;48.202;16.334;2023-05-25T10:38:55;99606.25;;;23.55;39.74
40155;BME280;25875;48.202;16.334;2023-05-25T10:41:22;99623.84;;;23.59;40.05
40155;BME280;25875;48.202;16.334;2023-05-25T10:43:50;99614.28;;;23.73;40.05
40155;BME280;25875;48.202;16.334;2023-05-25T10:46:20;99581.94;;;23.63;39.96
40155;BME280;25875;48.202;16.334;2023-05-25T10:48:49;99546.03;;;23.45;39.87
40155;BME280;25875;48.202;16.334;2023-05-25T10:51:18;99600.72;;;23.98;39.79
40155;BME280;25875;48.202;16.334;2023-05-25T10:53:57;99566.09;;;23.76;39.08
40155;BME280;25875;48.202;16.334;2023-05-25T10:56:25;99615.94;;;23.99;39.90
40155;BME280;25875;48.202;16.334;2023-05-25T10:58:52;99612.22;;;24.00;39.89
40155;BME280;25875;48.202;16.334;2023-05-25T11:01:18;99598.69;;;24.00;39.56
40155;BME280;25875;48.202;16.334;2023-05-25T11:03:56;99590.19;;;23.95;38.39
40155;BME280;25875;48.202;16.334;2023-05-25T11:07:02;99594.53;;;23.80;38.38
40155;BME280;25875;48.202;16.334;2023-05-25T11:09:31;99589.41;;;23.69;39.94
40155;BME280;25875;48.202;16.334;2023-05-25T11:12:01;99594.50;;;23.72;40.22
40155;BME280;25875;48.202;16.334;2023-05-25T11:14:29;99554.69;;;23.56;39.85
40155;BME280;25875;48.202;16.334;2023-05-25T11:17:03;99590.97;;;23.80;39.31
40155;BME280;25875;48.202;16.334;2023-05-25T11:19:41;99580.66;;;23.83;38.89
40155;BME280;25875;48.202;16.334;2023-05-25T11:22:15;99536.75;;;23.47;38.83
40155;BME280;25875;48.202;16.334;2023-05-25T11:24:47;99584.38;;;23.82;39.85
40155;BME280;25875;48.202;16.334;2023-05-25T11:27:14;99510.69;;;23.46;39.56
40155;BME280;25875;48.202;16.334;2023-05-25T11:29:41;99561.41;;;23.86;39.53
40155;BME280;25875;48.202;16.334;2023-05-25T11:32:12;99530.91;;;23.68;39.49
40155;BME280;25875;48.202;16.334;2023-05-25T11:34:40;99490.56;;;23.41;39.52
40155;BME280;25875;48.202;16.334;2023-05-25T11:37:12;99562.56;;;23.84;39.78
40155;BME280;25875;48.202;16.334;2023-05-25T11:39:40;99558.16;;;23.83;39.79
40155;BME280;25875;48.202;16.334;2023-05-25T11:42:09;99558.00;;;23.84;39.73
40155;BME280;25875;48.202;16.334;2023-05-25T11:44:36;99555.81;;;23.88;39.61
40155;BME280;25875;48.202;16.334;2023-05-25T11:47:05;99504.34;;;23.63;39.69
40155;BME280;25875;48.202;16.334;2023-05-25T11:49:37;99517.03;;;23.71;39.78
40155;BME280;25875;48.202;16.334;2023-05-25T11:52:05;99501.09;;;23.60;39.47
40155;BME280;25875;48.202;16.334;2023-05-25T11:54:32;99542.19;;;23.97;39.43
40155;BME280;25875;48.202;16.334;2023-05-25T11:57:00;99534.91;;;23.98;39.51
40155;BME280;25875;48.202;16.334;2023-05-25T11:59:29;99542.03;;;24.07;39.60
40155;BME280;25875;48.202;16.334;2023-05-25T12:01:58;99547.28;;;24.09;39.90
40155;BME280;25875;48.202;16.334;2023-05-25T12:04:25;99530.72;;;24.20;39.81
40155;BME280;25875;48.202;16.334;2023-05-25T12:07:00;99534.28;;;24.28;39.48
40155;BME280;25875;48.202;16.334;2023-05-25T12:09:27;99525.13;;;24.29;39.39
40155;BME280;25875;48.202;16.334;2023-05-25T12:11:54;99526.66;;;24.32;39.60
40155;BME280;25875;48.202;16.334;2023-05-25T12:14:21;99530.22;;;24.32;39.46
40155;BME280;25875;48.202;16.334;2023-05-25T12:16:50;99521.06;;;24.25;39.84
40155;BME280;25875;48.202;16.334;2023-05-25T12:19:18;99517.34;;;24.26;39.67
40155;BME280;25875;48.202;16.334;2023-05-25T12:21:45;99483.66;;;24.13;39.50
40155;BME280;25875;48.202;16.334;2023-05-25T12:24:17;99479.75;;;24.15;39.61
40155;BME280;25875;48.202;16.334;2023-05-25T12:26:48;99513.28;;;24.47;39.35
40155;BME280;25875;48.202;16.334;2023-05-25T12:29:15;99478.59;;;24.26;39.34
40155;BME280;25875;48.202;16.334;2023-05-25T12:31:42;99513.44;;;24.37;39.56
40155;BME280;25875;48.202;16.334;2023-05-25T12:34:12;99511.59;;;24.29;39.17
40155;BME280;25875;48.202;16.334;2023-05-25T12:36:41;99513.44;;;24.21;39.26
40155;BME280;25875;48.202;16.334;2023-05-25T12:39:09;99446.34;;;23.74;39.34
40155;BME280;25875;48.202;16.334;2023-05-25T12:41:47;99508.34;;;24.10;39.33
40155;BME280;25875;48.202;16.334;2023-05-25T12:44:19;99507.00;;;24.06;39.55
40155;BME280;25875;48.202;16.334;2023-05-25T12:46:47;99519.53;;;24.07;39.64
40155;BME280;25875;48.202;16.334;2023-05-25T12:49:29;99508.34;;;24.10;39.33
40155;BME280;25875;48.202;16.334;2023-05-25T12:51:56;99506.66;;;24.09;39.86
40155;BME280;25875;48.202;16.334;2023-05-25T12:54:34;99500.41;;;24.08;39.90
40155;BME280;25875;48.202;16.334;2023-05-25T12:57:02;99504.31;;;24.14;39.91